sensor_id;sensor_type;location;lat;lon;timestamp;P1;durP1;ratioP1;P2;durP2;ratioP2
59876;SDS011;45749;51.140;17.184;2023-04-03T00:00:49;16.65;;;7.05;;
59876;SDS011;45749;51.140;17.184;2023-04-03T00:03:15;33.20;;;15.32;;
59876;SDS011;45749;51.140;17.184;2023-04-03T00:05:41;23.20;;;9.20;;
59876;SDS011;45749;51.140;17.184;2023-04-03T00:08:06;14.75;;;7.00;;
59876;SDS011;45749;51.140;17.184;2023-04-03T00:10:34;15.45;;;5.30;;
59876;SDS011;45749;51.140;17.184;2023-04-03T00:13:00;13.55;;;6.38;;
59876;SDS011;45749;51.140;17.184;2023-04-03T00:15:26;7.07;;;3.50;;
59876;SDS011;45749;51.140;17.184;2023-04-03T00:17:51;9.32;;;2.53;;
59876;SDS011;45749;51.140;17.184;2023-04-03T00:20:17;6.72;;;2.72;;
59876;SDS011;45749;51.140;17.184;2023-04-03T00:22:42;6.60;;;2.80;;
59876;SDS011;45749;51.140;17.184;2023-04-03T00:25:08;8.77;;;3.45;;
59876;SDS011;45749;51.140;17.184;2023-04-03T00:27:35;6.95;;;2.88;;
59876;SDS011;45749;51.140;17.184;2023-04-03T00:30:02;6.95;;;3.22;;
59876;SDS011;45749;51.140;17.184;2023-04-03T00:32:29;10.38;;;2.80;;
59876;SDS011;45749;51.140;17.184;2023-04-03T00:34:55;9.98;;;3.53;;
59876;SDS011;45749;51.140;17.184;2023-04-03T00:37:20;6.35;;;2.60;;
59876;SDS011;45749;51.140;17.184;2023-04-03T00:39:45;8.25;;;2.63;;
59876;SDS011;45749;51.140;17.184;2023-04-03T00:42:12;5.88;;;2.83;;
59876;SDS011;45749;51.140;17.184;2023-04-03T00:47:03;7.20;;;2.38;;
59876;SDS011;45749;51.140;17.184;2023-04-03T00:49:30;7.25;;;2.78;;
59876;SDS011;45749;51.140;17.184;2023-04-03T00:51:56;9.30;;;2.63;;
59876;SDS011;45749;51.140;17.184;2023-04-03T00:54:23;6.97;;;3.47;;
59876;SDS011;45749;51.140;17.184;2023-04-03T00:56:51;7.50;;;3.55;;
59876;SDS011;45749;51.140;17.184;2023-04-03T00:59:20;7.38;;;3.83;;
59876;SDS011;45749;51.140;17.184;2023-04-03T01:01:50;8.27;;;3.03;;
59876;SDS011;45749;51.140;17.184;2023-04-03T01:04:30;11.45;;;3.50;;
59876;SDS011;45749;51.140;17.184;2023-04-03T01:07:03;5.65;;;2.78;;
59876;SDS011;45749;51.140;17.184;2023-04-03T01:09:35;10.93;;;2.78;;
59876;SDS011;45749;51.140;17.184;2023-04-03T01:12:17;7.60;;;2.70;;
59876;SDS011;45749;51.140;17.184;2023-04-03T01:14:43;10.30;;;3.25;;
59876;SDS011;45749;51.140;17.184;2023-04-03T01:25:49;8.18;;;2.17;;
59876;SDS011;45749;51.140;17.184;2023-04-03T01:28:19;4.13;;;2.10;;
59876;SDS011;45749;51.140;17.184;2023-04-03T01:33:35;9.00;;;2.63;;
59876;SDS011;45749;51.140;17.184;2023-04-03T01:36:02;7.00;;;2.17;;
59876;SDS011;45749;51.140;17.184;2023-04-03T01:38:28;5.50;;;1.85;;
59876;SDS011;45749;51.140;17.184;2023-04-03T01:40:53;4.90;;;2.00;;
59876;SDS011;45749;51.140;17.184;2023-04-03T01:43:19;3.67;;;2.03;;
59876;SDS011;45749;51.140;17.184;2023-04-03T01:45:44;6.65;;;2.03;;
59876;SDS011;45749;51.140;17.184;2023-04-03T01:48:11;6.40;;;2.15;;
59876;SDS011;45749;51.140;17.184;2023-04-03T01:50:37;8.07;;;2.63;;
59876;SDS011;45749;51.140;17.184;2023-04-03T01:53:02;6.50;;;2.80;;
59876;SDS011;45749;51.140;17.184;2023-04-03T01:55:28;5.60;;;2.33;;
59876;SDS011;45749;51.140;17.184;2023-04-03T01:57:53;4.82;;;2.45;;
59876;SDS011;45749;51.140;17.184;2023-04-03T02:00:18;4.30;;;2.70;;
59876;SDS011;45749;51.140;17.184;2023-04-03T02:02:44;6.90;;;2.28;;
59876;SDS011;45749;51.140;17.184;2023-04-03T02:05:09;4.90;;;2.28;;
59876;SDS011;45749;51.140;17.184;2023-04-03T02:07:35;6.47;;;2.50;;
59876;SDS011;45749;51.140;17.184;2023-04-03T02:10:01;8.05;;;3.22;;
59876;SDS011;45749;51.140;17.184;2023-04-03T02:12:27;5.38;;;1.90;;
59876;SDS011;45749;51.140;17.184;2023-04-03T02:14:53;6.32;;;2.10;;
59876;SDS011;45749;51.140;17.184;2023-04-03T02:17:18;4.78;;;1.85;;
59876;SDS011;45749;51.140;17.184;2023-04-03T02:19:43;8.27;;;2.42;;
59876;SDS011;45749;51.140;17.184;2023-04-03T02:22:09;7.60;;;2.55;;
59876;SDS011;45749;51.140;17.184;2023-04-03T02:24:34;7.72;;;1.98;;
59876;SDS011;45749;51.140;17.184;2023-04-03T02:27:00;9.50;;;3.08;;
59876;SDS011;45749;51.140;17.184;2023-04-03T02:29:26;6.82;;;2.28;;
59876;SDS011;45749;51.140;17.184;2023-04-03T02:31:51;7.85;;;2.20;;
59876;SDS011;45749;51.140;17.184;2023-04-03T02:34:17;5.65;;;2.50;;
59876;SDS011;45749;51.140;17.184;2023-04-03T02:36:43;4.65;;;1.75;;
59876;SDS011;45749;51.140;17.184;2023-04-03T02:39:08;11.02;;;2.40;;
59876;SDS011;45749;51.140;17.184;2023-04-03T02:41:34;4.72;;;2.00;;
59876;SDS011;45749;51.140;17.184;2023-04-03T02:44:03;5.40;;;1.88;;
59876;SDS011;45749;51.140;17.184;2023-04-03T02:46:30;3.85;;;1.58;;
59876;SDS011;45749;51.140;17.184;2023-04-03T02:48:56;5.50;;;1.80;;
59876;SDS011;45749;51.140;17.184;2023-04-03T02:51:21;7.20;;;2.95;;
59876;SDS011;45749;51.140;17.184;2023-04-03T02:53:48;18.30;;;6.68;;
59876;SDS011;45749;51.140;17.184;2023-04-03T02:56:13;14.98;;;6.47;;
59876;SDS011;45749;51.140;17.184;2023-04-03T02:58:39;14.05;;;5.57;;
59876;SDS011;45749;51.140;17.184;2023-04-03T03:01:05;14.00;;;7.18;;
59876;SDS011;45749;51.140;17.184;2023-04-03T03:03:30;20.90;;;7.80;;
59876;SDS011;45749;51.140;17.184;2023-04-03T03:06:06;12.90;;;5.80;;
59876;SDS011;45749;51.140;17.184;2023-04-03T03:08:33;10.68;;;5.25;;
59876;SDS011;45749;51.140;17.184;2023-04-03T03:11:00;9.85;;;4.60;;
59876;SDS011;45749;51.140;17.184;2023-04-03T03:13:25;10.65;;;4.22;;
59876;SDS011;45749;51.140;17.184;2023-04-03T03:15:51;14.00;;;4.47;;
59876;SDS011;45749;51.140;17.184;2023-04-03T03:18:16;10.30;;;4.30;;
59876;SDS011;45749;51.140;17.184;2023-04-03T03:20:42;11.70;;;4.88;;
59876;SDS011;45749;51.140;17.184;2023-04-03T03:23:07;8.63;;;3.85;;
59876;SDS011;45749;51.140;17.184;2023-04-03T03:25:33;11.02;;;4.68;;
59876;SDS011;45749;51.140;17.184;2023-04-03T03:27:58;8.85;;;4.05;;
59876;SDS011;45749;51.140;17.184;2023-04-03T03:30:24;11.95;;;3.47;;
59876;SDS011;45749;51.140;17.184;2023-04-03T03:32:49;10.75;;;5.05;;
59876;SDS011;45749;51.140;17.184;2023-04-03T03:35:14;10.50;;;4.13;;
59876;SDS011;45749;51.140;17.184;2023-04-03T03:37:40;6.85;;;3.80;;
59876;SDS011;45749;51.140;17.184;2023-04-03T03:40:05;8.25;;;4.35;;
59876;SDS011;45749;51.140;17.184;2023-04-03T03:42:31;8.50;;;3.60;;
59876;SDS011;45749;51.140;17.184;2023-04-03T03:44:57;6.00;;;2.90;;
59876;SDS011;45749;51.140;17.184;2023-04-03T03:47:22;8.90;;;3.95;;
59876;SDS011;45749;51.140;17.184;2023-04-03T03:49:48;12.43;;;3.42;;
59876;SDS011;45749;51.140;17.184;2023-04-03T03:52:13;5.32;;;2.53;;
59876;SDS011;45749;51.140;17.184;2023-04-03T03:54:38;5.85;;;3.25;;
59876;SDS011;45749;51.140;17.184;2023-04-03T03:57:04;16.48;;;9.15;;
59876;SDS011;45749;51.140;17.184;2023-04-03T03:59:30;13.20;;;6.00;;
59876;SDS011;45749;51.140;17.184;2023-04-03T04:01:55;17.05;;;8.55;;
59876;SDS011;45749;51.140;17.184;2023-04-03T04:04:21;24.83;;;11.43;;
59876;SDS011;45749;51.140;17.184;2023-04-03T04:06:46;25.83;;;9.90;;
59876;SDS011;45749;51.140;17.184;2023-04-03T04:09:12;19.85;;;8.52;;
59876;SDS011;45749;51.140;17.184;2023-04-03T04:11:37;17.95;;;7.90;;
59876;SDS011;45749;51.140;17.184;2023-04-03T04:14:04;15.60;;;7.15;;
59876;SDS011;45749;51.140;17.184;2023-04-03T04:16:30;14.93;;;6.03;;
59876;SDS011;45749;51.140;17.184;2023-04-03T04:18:56;12.88;;;5.35;;
59876;SDS011;45749;51.140;17.184;2023-04-03T04:21:21;15.13;;;6.68;;
59876;SDS011;45749;51.140;17.184;2023-04-03T04:23:47;11.95;;;6.70;;
59876;SDS011;45749;51.140;17.184;2023-04-03T04:26:12;15.88;;;4.60;;
59876;SDS011;45749;51.140;17.184;2023-04-03T04:28:37;9.10;;;4.47;;
59876;SDS011;45749;51.140;17.184;2023-04-03T04:31:03;9.52;;;4.47;;
59876;SDS011;45749;51.140;17.184;2023-04-03T04:33:28;11.52;;;5.13;;
59876;SDS011;45749;51.140;17.184;2023-04-03T04:35:53;8.50;;;4.72;;
59876;SDS011;45749;51.140;17.184;2023-04-03T04:38:19;14.38;;;4.90;;
59876;SDS011;45749;51.140;17.184;2023-04-03T04:40:44;7.78;;;3.50;;
59876;SDS011;45749;51.140;17.184;2023-04-03T04:43:10;10.10;;;3.90;;
59876;SDS011;45749;51.140;17.184;2023-04-03T04:45:39;10.93;;;3.55;;
59876;SDS011;45749;51.140;17.184;2023-04-03T04:48:04;7.50;;;3.22;;
59876;SDS011;45749;51.140;17.184;2023-04-03T04:50:30;7.45;;;2.88;;
59876;SDS011;45749;51.140;17.184;2023-04-03T04:52:55;12.02;;;4.43;;
59876;SDS011;45749;51.140;17.184;2023-04-03T04:55:21;10.90;;;4.78;;
59876;SDS011;45749;51.140;17.184;2023-04-03T04:57:46;12.23;;;4.10;;
59876;SDS011;45749;51.140;17.184;2023-04-03T05:00:12;8.80;;;3.85;;
59876;SDS011;45749;51.140;17.184;2023-04-03T05:02:38;12.40;;;5.63;;
59876;SDS011;45749;51.140;17.184;2023-04-03T05:05:03;16.52;;;5.63;;
59876;SDS011;45749;51.140;17.184;2023-04-03T05:07:29;12.93;;;4.40;;
59876;SDS011;45749;51.140;17.184;2023-04-03T05:09:54;26.33;;;8.43;;
59876;SDS011;45749;51.140;17.184;2023-04-03T05:12:21;8.35;;;3.53;;
59876;SDS011;45749;51.140;17.184;2023-04-03T05:14:47;5.97;;;2.08;;
59876;SDS011;45749;51.140;17.184;2023-04-03T05:17:12;4.97;;;2.25;;
59876;SDS011;45749;51.140;17.184;2023-04-03T05:19:38;6.88;;;2.90;;
59876;SDS011;45749;51.140;17.184;2023-04-03T05:22:03;8.23;;;3.20;;
59876;SDS011;45749;51.140;17.184;2023-04-03T05:24:28;7.38;;;3.88;;
59876;SDS011;45749;51.140;17.184;2023-04-03T05:26:54;8.32;;;2.78;;
59876;SDS011;45749;51.140;17.184;2023-04-03T05:29:20;8.50;;;4.50;;
59876;SDS011;45749;51.140;17.184;2023-04-03T05:31:48;10.43;;;4.15;;
59876;SDS011;45749;51.140;17.184;2023-04-03T05:34:14;10.55;;;3.70;;
59876;SDS011;45749;51.140;17.184;2023-04-03T05:36:39;7.63;;;3.67;;
59876;SDS011;45749;51.140;17.184;2023-04-03T05:39:05;10.30;;;3.40;;
59876;SDS011;45749;51.140;17.184;2023-04-03T05:41:30;4.93;;;2.38;;
59876;SDS011;45749;51.140;17.184;2023-04-03T05:43:56;9.65;;;3.65;;
59876;SDS011;45749;51.140;17.184;2023-04-03T05:46:21;8.07;;;3.95;;
59876;SDS011;45749;51.140;17.184;2023-04-03T05:48:47;8.68;;;4.30;;
59876;SDS011;45749;51.140;17.184;2023-04-03T05:51:14;8.35;;;3.90;;
59876;SDS011;45749;51.140;17.184;2023-04-03T05:53:42;7.07;;;2.47;;
59876;SDS011;45749;51.140;17.184;2023-04-03T05:56:09;7.28;;;2.97;;
59876;SDS011;45749;51.140;17.184;2023-04-03T05:58:34;10.05;;;4.07;;
59876;SDS011;45749;51.140;17.184;2023-04-03T06:01:00;8.10;;;3.28;;
59876;SDS011;45749;51.140;17.184;2023-04-03T06:03:26;10.10;;;3.03;;
59876;SDS011;45749;51.140;17.184;2023-04-03T06:05:51;10.02;;;3.13;;
59876;SDS011;45749;51.140;17.184;2023-04-03T06:08:17;6.07;;;3.00;;
59876;SDS011;45749;51.140;17.184;2023-04-03T06:10:43;6.22;;;2.63;;
59876;SDS011;45749;51.140;17.184;2023-04-03T06:13:09;4.32;;;2.30;;
59876;SDS011;45749;51.140;17.184;2023-04-03T06:15:35;5.30;;;2.63;;
59876;SDS011;45749;51.140;17.184;2023-04-03T06:18:01;7.82;;;3.50;;
59876;SDS011;45749;51.140;17.184;2023-04-03T06:20:27;10.77;;;3.67;;
59876;SDS011;45749;51.140;17.184;2023-04-03T06:22:53;4.70;;;2.60;;
59876;SDS011;45749;51.140;17.184;2023-04-03T06:25:18;8.73;;;3.60;;
59876;SDS011;45749;51.140;17.184;2023-04-03T06:27:44;8.32;;;3.28;;
59876;SDS011;45749;51.140;17.184;2023-04-03T06:30:10;17.50;;;7.43;;
59876;SDS011;45749;51.140;17.184;2023-04-03T06:32:36;9.80;;;5.63;;
59876;SDS011;45749;51.140;17.184;2023-04-03T06:35:04;6.95;;;4.35;;
59876;SDS011;45749;51.140;17.184;2023-04-03T06:37:30;8.02;;;3.20;;
59876;SDS011;45749;51.140;17.184;2023-04-03T06:39:57;6.47;;;2.25;;
59876;SDS011;45749;51.140;17.184;2023-04-03T06:42:25;6.07;;;2.88;;
59876;SDS011;45749;51.140;17.184;2023-04-03T06:44:51;8.25;;;2.50;;
59876;SDS011;45749;51.140;17.184;2023-04-03T06:47:16;8.48;;;3.63;;
59876;SDS011;45749;51.140;17.184;2023-04-03T06:49:42;6.97;;;3.53;;
59876;SDS011;45749;51.140;17.184;2023-04-03T06:52:08;6.68;;;2.97;;
59876;SDS011;45749;51.140;17.184;2023-04-03T06:54:35;9.30;;;3.75;;
59876;SDS011;45749;51.140;17.184;2023-04-03T06:57:00;9.25;;;3.90;;
59876;SDS011;45749;51.140;17.184;2023-04-03T06:59:26;8.40;;;3.72;;
59876;SDS011;45749;51.140;17.184;2023-04-03T07:01:52;5.03;;;2.25;;
59876;SDS011;45749;51.140;17.184;2023-04-03T07:04:18;7.38;;;2.28;;
59876;SDS011;45749;51.140;17.184;2023-04-03T07:06:45;8.55;;;3.92;;
59876;SDS011;45749;51.140;17.184;2023-04-03T07:09:12;11.30;;;5.00;;
59876;SDS011;45749;51.140;17.184;2023-04-03T07:11:37;9.40;;;2.70;;
59876;SDS011;45749;51.140;17.184;2023-04-03T07:14:03;5.25;;;2.38;;
59876;SDS011;45749;51.140;17.184;2023-04-03T07:16:28;8.13;;;2.95;;
59876;SDS011;45749;51.140;17.184;2023-04-03T07:18:57;5.05;;;2.40;;
59876;SDS011;45749;51.140;17.184;2023-04-03T07:21:22;6.38;;;2.38;;
59876;SDS011;45749;51.140;17.184;2023-04-03T07:23:48;3.85;;;2.10;;
59876;SDS011;45749;51.140;17.184;2023-04-03T07:26:14;4.82;;;2.80;;
59876;SDS011;45749;51.140;17.184;2023-04-03T07:28:39;6.40;;;2.28;;
59876;SDS011;45749;51.140;17.184;2023-04-03T07:31:08;6.78;;;2.20;;
59876;SDS011;45749;51.140;17.184;2023-04-03T07:33:38;4.43;;;2.27;;
59876;SDS011;45749;51.140;17.184;2023-04-03T07:36:05;7.38;;;2.38;;
59876;SDS011;45749;51.140;17.184;2023-04-03T07:38:32;2.65;;;1.55;;
59876;SDS011;45749;51.140;17.184;2023-04-03T07:40:58;4.50;;;2.17;;
59876;SDS011;45749;51.140;17.184;2023-04-03T07:43:23;6.85;;;2.33;;
59876;SDS011;45749;51.140;17.184;2023-04-03T07:45:50;6.47;;;2.08;;
59876;SDS011;45749;51.140;17.184;2023-04-03T07:48:16;8.10;;;2.38;;
59876;SDS011;45749;51.140;17.184;2023-04-03T07:50:45;4.47;;;2.55;;
59876;SDS011;45749;51.140;17.184;2023-04-03T07:53:11;6.10;;;2.67;;
59876;SDS011;45749;51.140;17.184;2023-04-03T07:55:37;4.97;;;2.70;;
59876;SDS011;45749;51.140;17.184;2023-04-03T07:58:08;6.40;;;3.33;;
59876;SDS011;45749;51.140;17.184;2023-04-03T08:00:35;5.97;;;3.10;;
59876;SDS011;45749;51.140;17.184;2023-04-03T08:03:01;8.65;;;2.60;;
59876;SDS011;45749;51.140;17.184;2023-04-03T08:05:27;4.00;;;2.42;;
59876;SDS011;45749;51.140;17.184;2023-04-03T08:07:52;6.20;;;3.08;;
59876;SDS011;45749;51.140;17.184;2023-04-03T08:10:17;4.18;;;2.53;;
59876;SDS011;45749;51.140;17.184;2023-04-03T08:12:45;6.43;;;2.53;;
59876;SDS011;45749;51.140;17.184;2023-04-03T08:15:11;5.38;;;2.50;;
59876;SDS011;45749;51.140;17.184;2023-04-03T08:17:37;5.70;;;2.63;;
59876;SDS011;45749;51.140;17.184;2023-04-03T08:20:03;4.55;;;2.53;;
59876;SDS011;45749;51.140;17.184;2023-04-03T08:22:30;3.40;;;2.20;;
59876;SDS011;45749;51.140;17.184;2023-04-03T08:24:55;7.13;;;2.67;;
59876;SDS011;45749;51.140;17.184;2023-04-03T08:27:21;4.55;;;1.75;;
59876;SDS011;45749;51.140;17.184;2023-04-03T08:29:46;3.58;;;1.92;;
59876;SDS011;45749;51.140;17.184;2023-04-03T08:32:12;5.05;;;1.67;;
59876;SDS011;45749;51.140;17.184;2023-04-03T08:34:37;3.88;;;2.10;;
59876;SDS011;45749;51.140;17.184;2023-04-03T08:37:04;3.90;;;1.83;;
59876;SDS011;45749;51.140;17.184;2023-04-03T08:39:30;3.97;;;1.60;;
59876;SDS011;45749;51.140;17.184;2023-04-03T08:41:57;4.32;;;1.90;;
59876;SDS011;45749;51.140;17.184;2023-04-03T08:44:46;6.72;;;1.58;;
59876;SDS011;45749;51.140;17.184;2023-04-03T08:47:22;3.22;;;1.73;;
59876;SDS011;45749;51.140;17.184;2023-04-03T08:49:55;2.88;;;1.30;;
59876;SDS011;45749;51.140;17.184;2023-04-03T08:52:38;3.75;;;1.45;;
59876;SDS011;45749;51.140;17.184;2023-04-03T09:00:34;3.38;;;1.55;;
59876;SDS011;45749;51.140;17.184;2023-04-03T09:03:11;4.65;;;1.83;;
59876;SDS011;45749;51.140;17.184;2023-04-03T09:05:40;2.63;;;1.45;;
59876;SDS011;45749;51.140;17.184;2023-04-03T09:08:23;3.42;;;1.60;;
59876;SDS011;45749;51.140;17.184;2023-04-03T09:10:53;5.10;;;1.38;;
59876;SDS011;45749;51.140;17.184;2023-04-03T09:13:43;2.30;;;0.98;;
59876;SDS011;45749;51.140;17.184;2023-04-03T09:22:02;4.93;;;1.58;;
59876;SDS011;45749;51.140;17.184;2023-04-03T09:24:38;4.03;;;1.50;;
59876;SDS011;45749;51.140;17.184;2023-04-03T09:27:06;3.22;;;1.27;;
59876;SDS011;45749;51.140;17.184;2023-04-03T09:29:35;7.28;;;2.85;;
59876;SDS011;45749;51.140;17.184;2023-04-03T09:32:27;4.00;;;2.03;;
59876;SDS011;45749;51.140;17.184;2023-04-03T09:35:02;5.72;;;2.40;;
59876;SDS011;45749;51.140;17.184;2023-04-03T09:37:45;5.80;;;2.40;;
59876;SDS011;45749;51.140;17.184;2023-04-03T09:42:49;3.83;;;1.92;;
59876;SDS011;45749;51.140;17.184;2023-04-03T09:45:31;3.25;;;2.30;;
59876;SDS011;45749;51.140;17.184;2023-04-03T09:55:58;6.57;;;2.33;;
59876;SDS011;45749;51.140;17.184;2023-04-03T09:58:38;3.85;;;2.05;;
59876;SDS011;45749;51.140;17.184;2023-04-03T10:01:06;3.00;;;2.03;;
59876;SDS011;45749;51.140;17.184;2023-04-03T10:03:45;4.43;;;1.73;;
59876;SDS011;45749;51.140;17.184;2023-04-03T10:06:22;4.88;;;2.15;;
59876;SDS011;45749;51.140;17.184;2023-04-03T10:08:59;2.88;;;1.75;;
59876;SDS011;45749;51.140;17.184;2023-04-03T10:11:26;2.88;;;1.73;;
59876;SDS011;45749;51.140;17.184;2023-04-03T10:14:01;3.92;;;1.65;;
59876;SDS011;45749;51.140;17.184;2023-04-03T10:16:34;2.67;;;1.65;;
59876;SDS011;45749;51.140;17.184;2023-04-03T10:19:17;4.68;;;2.08;;
59876;SDS011;45749;51.140;17.184;2023-04-03T10:30:32;3.83;;;2.15;;
59876;SDS011;45749;51.140;17.184;2023-04-03T10:39:06;4.35;;;1.73;;
59876;SDS011;45749;51.140;17.184;2023-04-03T10:52:37;5.75;;;2.00;;
59876;SDS011;45749;51.140;17.184;2023-04-03T10:55:24;2.22;;;1.42;;
59876;SDS011;45749;51.140;17.184;2023-04-03T10:58:06;2.03;;;1.40;;
59876;SDS011;45749;51.140;17.184;2023-04-03T11:00:47;4.45;;;1.30;;
59876;SDS011;45749;51.140;17.184;2023-04-03T11:03:17;4.80;;;1.13;;
59876;SDS011;45749;51.140;17.184;2023-04-03T11:05:55;4.00;;;1.58;;
59876;SDS011;45749;51.140;17.184;2023-04-03T11:11:00;4.75;;;1.55;;
59876;SDS011;45749;51.140;17.184;2023-04-03T11:13:39;5.32;;;1.20;;
59876;SDS011;45749;51.140;17.184;2023-04-03T11:16:08;3.45;;;1.15;;
59876;SDS011;45749;51.140;17.184;2023-04-03T11:18:43;4.55;;;1.65;;
59876;SDS011;45749;51.140;17.184;2023-04-03T11:21:17;3.80;;;1.55;;
59876;SDS011;45749;51.140;17.184;2023-04-03T11:23:48;3.10;;;1.50;;
59876;SDS011;45749;51.140;17.184;2023-04-03T11:26:16;3.78;;;1.45;;
59876;SDS011;45749;51.140;17.184;2023-04-03T11:28:42;4.30;;;1.35;;
59876;SDS011;45749;51.140;17.184;2023-04-03T11:33:57;6.25;;;3.60;;
59876;SDS011;45749;51.140;17.184;2023-04-03T11:36:32;3.53;;;1.85;;
59876;SDS011;45749;51.140;17.184;2023-04-03T11:39:10;3.47;;;2.20;;
59876;SDS011;45749;51.140;17.184;2023-04-03T11:41:40;3.03;;;1.55;;
59876;SDS011;45749;51.140;17.184;2023-04-03T11:44:06;3.97;;;1.70;;
59876;SDS011;45749;51.140;17.184;2023-04-03T11:46:51;4.43;;;1.85;;
59876;SDS011;45749;51.140;17.184;2023-04-03T12:29:25;3.08;;;2.20;;
59876;SDS011;45749;51.140;17.184;2023-04-03T12:40:32;4.20;;;2.10;;
59876;SDS011;45749;51.140;17.184;2023-04-03T12:43:34;4.13;;;1.80;;
59876;SDS011;45749;51.140;17.184;2023-04-03T12:48:38;4.53;;;1.80;;
59876;SDS011;45749;51.140;17.184;2023-04-03T12:51:16;3.67;;;1.65;;
59876;SDS011;45749;51.140;17.184;2023-04-03T12:53:45;4.28;;;1.83;;
59876;SDS011;45749;51.140;17.184;2023-04-03T12:56:24;5.35;;;2.13;;
59876;SDS011;45749;51.140;17.184;2023-04-03T12:58:54;6.18;;;2.45;;
59876;SDS011;45749;51.140;17.184;2023-04-03T13:01:23;2.40;;;1.90;;
59876;SDS011;45749;51.140;17.184;2023-04-03T13:03:54;3.00;;;1.88;;
59876;SDS011;45749;51.140;17.184;2023-04-03T13:06:23;5.63;;;2.85;;
59876;SDS011;45749;51.140;17.184;2023-04-03T13:08:52;6.00;;;2.28;;
59876;SDS011;45749;51.140;17.184;2023-04-03T13:11:19;4.25;;;2.15;;
59876;SDS011;45749;51.140;17.184;2023-04-03T13:13:59;5.53;;;2.03;;
59876;SDS011;45749;51.140;17.184;2023-04-03T13:16:28;4.05;;;1.63;;
59876;SDS011;45749;51.140;17.184;2023-04-03T13:18:54;4.88;;;2.22;;
59876;SDS011;45749;51.140;17.184;2023-04-03T13:21:21;5.32;;;2.10;;
59876;SDS011;45749;51.140;17.184;2023-04-03T13:23:52;3.75;;;2.17;;
59876;SDS011;45749;51.140;17.184;2023-04-03T13:26:21;2.33;;;1.67;;
59876;SDS011;45749;51.140;17.184;2023-04-03T13:28:49;3.50;;;1.80;;
59876;SDS011;45749;51.140;17.184;2023-04-03T13:31:19;4.80;;;1.90;;
59876;SDS011;45749;51.140;17.184;2023-04-03T13:36:31;4.68;;;2.17;;
59876;SDS011;45749;51.140;17.184;2023-04-03T13:39:00;4.00;;;1.90;;
59876;SDS011;45749;51.140;17.184;2023-04-03T13:41:32;4.35;;;2.03;;
59876;SDS011;45749;51.140;17.184;2023-04-03T13:44:17;2.70;;;1.20;;
59876;SDS011;45749;51.140;17.184;2023-04-03T13:46:52;4.38;;;1.95;;
59876;SDS011;45749;51.140;17.184;2023-04-03T13:51:51;4.10;;;2.85;;
59876;SDS011;45749;51.140;17.184;2023-04-03T13:54:21;5.85;;;2.63;;
59876;SDS011;45749;51.140;17.184;2023-04-03T13:56:55;3.78;;;2.67;;
59876;SDS011;45749;51.140;17.184;2023-04-03T13:59:32;2.97;;;1.80;;
59876;SDS011;45749;51.140;17.184;2023-04-03T14:07:10;3.63;;;2.10;;
59876;SDS011;45749;51.140;17.184;2023-04-03T14:09:36;4.07;;;2.00;;
59876;SDS011;45749;51.140;17.184;2023-04-03T14:12:04;4.00;;;1.98;;
59876;SDS011;45749;51.140;17.184;2023-04-03T14:14:34;4.35;;;2.00;;
59876;SDS011;45749;51.140;17.184;2023-04-03T14:17:03;2.53;;;1.52;;
59876;SDS011;45749;51.140;17.184;2023-04-03T14:19:38;5.60;;;1.92;;
59876;SDS011;45749;51.140;17.184;2023-04-03T14:24:46;2.95;;;1.60;;
59876;SDS011;45749;51.140;17.184;2023-04-03T14:27:16;1.63;;;1.20;;
59876;SDS011;45749;51.140;17.184;2023-04-03T14:29:45;3.42;;;2.10;;
59876;SDS011;45749;51.140;17.184;2023-04-03T14:32:13;3.35;;;1.67;;
59876;SDS011;45749;51.140;17.184;2023-04-03T14:34:39;3.97;;;2.10;;
59876;SDS011;45749;51.140;17.184;2023-04-03T14:37:09;5.13;;;2.40;;
59876;SDS011;45749;51.140;17.184;2023-04-03T14:39:36;5.93;;;2.85;;
59876;SDS011;45749;51.140;17.184;2023-04-03T14:42:01;3.15;;;1.90;;
59876;SDS011;45749;51.140;17.184;2023-04-03T14:44:27;2.47;;;1.50;;
59876;SDS011;45749;51.140;17.184;2023-04-03T14:46:52;3.67;;;1.92;;
59876;SDS011;45749;51.140;17.184;2023-04-03T14:49:19;4.47;;;1.65;;
59876;SDS011;45749;51.140;17.184;2023-04-03T14:51:47;3.50;;;1.65;;
59876;SDS011;45749;51.140;17.184;2023-04-03T14:54:14;3.88;;;1.73;;
59876;SDS011;45749;51.140;17.184;2023-04-03T14:56:42;7.78;;;2.08;;
59876;SDS011;45749;51.140;17.184;2023-04-03T14:59:09;4.18;;;1.70;;
59876;SDS011;45749;51.140;17.184;2023-04-03T15:01:38;2.92;;;1.70;;
59876;SDS011;45749;51.140;17.184;2023-04-03T15:04:22;5.88;;;3.70;;
59876;SDS011;45749;51.140;17.184;2023-04-03T15:06:47;6.40;;;3.17;;
59876;SDS011;45749;51.140;17.184;2023-04-03T15:09:20;3.88;;;2.38;;
59876;SDS011;45749;51.140;17.184;2023-04-03T15:11:48;5.55;;;2.28;;
59876;SDS011;45749;51.140;17.184;2023-04-03T15:14:15;3.13;;;2.13;;
59876;SDS011;45749;51.140;17.184;2023-04-03T15:16:41;2.60;;;1.92;;
59876;SDS011;45749;51.140;17.184;2023-04-03T15:19:06;4.03;;;1.92;;
59876;SDS011;45749;51.140;17.184;2023-04-03T15:21:32;4.95;;;1.80;;
59876;SDS011;45749;51.140;17.184;2023-04-03T15:23:57;5.25;;;2.10;;
59876;SDS011;45749;51.140;17.184;2023-04-03T15:26:23;7.63;;;2.28;;
59876;SDS011;45749;51.140;17.184;2023-04-03T15:28:51;7.80;;;2.25;;
59876;SDS011;45749;51.140;17.184;2023-04-03T15:31:16;5.45;;;2.28;;
59876;SDS011;45749;51.140;17.184;2023-04-03T15:33:43;6.00;;;3.53;;
59876;SDS011;45749;51.140;17.184;2023-04-03T15:36:08;8.75;;;4.72;;
59876;SDS011;45749;51.140;17.184;2023-04-03T15:38:34;8.32;;;3.70;;
59876;SDS011;45749;51.140;17.184;2023-04-03T15:41:00;7.25;;;3.90;;
59876;SDS011;45749;51.140;17.184;2023-04-03T15:43:26;6.22;;;3.60;;
59876;SDS011;45749;51.140;17.184;2023-04-03T15:45:51;6.32;;;3.53;;
59876;SDS011;45749;51.140;17.184;2023-04-03T15:48:17;4.90;;;2.53;;
59876;SDS011;45749;51.140;17.184;2023-04-03T15:50:43;5.22;;;3.05;;
59876;SDS011;45749;51.140;17.184;2023-04-03T15:53:09;3.30;;;1.85;;
59876;SDS011;45749;51.140;17.184;2023-04-03T15:55:36;5.70;;;2.75;;
59876;SDS011;45749;51.140;17.184;2023-04-03T15:58:02;7.20;;;4.35;;
59876;SDS011;45749;51.140;17.184;2023-04-03T16:00:28;6.38;;;3.72;;
59876;SDS011;45749;51.140;17.184;2023-04-03T16:02:58;7.95;;;6.82;;
59876;SDS011;45749;51.140;17.184;2023-04-03T16:05:28;4.93;;;3.13;;
59876;SDS011;45749;51.140;17.184;2023-04-03T16:07:54;9.20;;;2.78;;
59876;SDS011;45749;51.140;17.184;2023-04-03T16:10:20;12.18;;;6.22;;
59876;SDS011;45749;51.140;17.184;2023-04-03T16:12:46;9.50;;;5.40;;
59876;SDS011;45749;51.140;17.184;2023-04-03T16:15:11;5.43;;;3.53;;
59876;SDS011;45749;51.140;17.184;2023-04-03T16:17:37;6.15;;;3.38;;
59876;SDS011;45749;51.140;17.184;2023-04-03T16:20:05;8.52;;;3.92;;
59876;SDS011;45749;51.140;17.184;2023-04-03T16:22:32;6.13;;;3.25;;
59876;SDS011;45749;51.140;17.184;2023-04-03T16:24:58;5.95;;;3.50;;
59876;SDS011;45749;51.140;17.184;2023-04-03T16:27:23;4.82;;;2.90;;
59876;SDS011;45749;51.140;17.184;2023-04-03T16:29:55;6.15;;;3.88;;
59876;SDS011;45749;51.140;17.184;2023-04-03T16:32:23;6.03;;;3.08;;
59876;SDS011;45749;51.140;17.184;2023-04-03T16:34:51;7.13;;;2.65;;
59876;SDS011;45749;51.140;17.184;2023-04-03T16:37:17;5.15;;;2.35;;
59876;SDS011;45749;51.140;17.184;2023-04-03T16:39:43;4.18;;;2.28;;
59876;SDS011;45749;51.140;17.184;2023-04-03T16:42:08;7.40;;;3.00;;
59876;SDS011;45749;51.140;17.184;2023-04-03T16:44:34;4.40;;;2.65;;
59876;SDS011;45749;51.140;17.184;2023-04-03T16:47:00;7.07;;;3.22;;
59876;SDS011;45749;51.140;17.184;2023-04-03T16:49:26;5.43;;;3.45;;